sensor_id;sensor_type;location;lat;lon;timestamp;temperature;humidity
6520;DHT22;3293;51.690;5.982;2023-04-25T00:04:53;5.60;99.90
6520;DHT22;3293;51.690;5.982;2023-04-25T00:09:53;5.70;99.90
6520;DHT22;3293;51.690;5.982;2023-04-25T00:14:54;5.80;99.90
6520;DHT22;3293;51.690;5.982;2023-04-25T00:19:56;6.00;99.90
6520;DHT22;3293;51.690;5.982;2023-04-25T00:24:57;6.10;99.90
6520;DHT22;3293;51.690;5.982;2023-04-25T00:30:00;6.10;99.90
6520;DHT22;3293;51.690;5.982;2023-04-25T00:35:00;6.10;99.90
6520;DHT22;3293;51.690;5.982;2023-04-25T00:39:59;6.20;99.90
6520;DHT22;3293;51.690;5.982;2023-04-25T00:45:00;6.20;99.90
6520;DHT22;3293;51.690;5.982;2023-04-25T00:50:00;6.20;99.90
6520;DHT22;3293;51.690;5.982;2023-04-25T00:55:01;6.10;99.90
6520;DHT22;3293;51.690;5.982;2023-04-25T01:00:01;6.00;99.90
6520;DHT22;3293;51.690;5.982;2023-04-25T01:05:02;5.90;99.90
6520;DHT22;3293;51.690;5.982;2023-04-25T01:10:03;5.90;99.90
6520;DHT22;3293;51.690;5.982;2023-04-25T01:15:04;5.90;99.90
6520;DHT22;3293;51.690;5.982;2023-04-25T01:20:04;6.00;99.90
6520;DHT22;3293;51.690;5.982;2023-04-25T01:25:05;6.00;99.90
6520;DHT22;3293;51.690;5.982;2023-04-25T01:30:06;5.90;99.90
6520;DHT22;3293;51.690;5.982;2023-04-25T01:35:09;5.80;99.90
6520;DHT22;3293;51.690;5.982;2023-04-25T01:40:11;5.70;99.90
6520;DHT22;3293;51.690;5.982;2023-04-25T01:45:12;5.60;99.90
6520;DHT22;3293;51.690;5.982;2023-04-25T01:50:12;5.60;99.90
6520;DHT22;3293;51.690;5.982;2023-04-25T01:55:12;5.50;99.90
6520;DHT22;3293;51.690;5.982;2023-04-25T02:00:12;5.40;99.90
6520;DHT22;3293;51.690;5.982;2023-04-25T02:05:12;5.40;99.90
6520;DHT22;3293;51.690;5.982;2023-04-25T02:10:13;5.40;99.90
6520;DHT22;3293;51.690;5.982;2023-04-25T02:15:13;5.30;99.90
6520;DHT22;3293;51.690;5.982;2023-04-25T02:20:13;5.30;99.90
6520;DHT22;3293;51.690;5.982;2023-04-25T02:25:13;5.20;99.90
6520;DHT22;3293;51.690;5.982;2023-04-25T02:30:13;5.20;99.90
6520;DHT22;3293;51.690;5.982;2023-04-25T02:35:13;5.10;99.90
6520;DHT22;3293;51.690;5.982;2023-04-25T02:40:13;5.00;99.90
6520;DHT22;3293;51.690;5.982;2023-04-25T02:45:13;4.90;99.90
6520;DHT22;3293;51.690;5.982;2023-04-25T02:50:13;4.80;99.90
6520;DHT22;3293;51.690;5.982;2023-04-25T02:55:13;4.70;99.90
6520;DHT22;3293;51.690;5.982;2023-04-25T03:00:13;4.60;99.90
6520;DHT22;3293;51.690;5.982;2023-04-25T03:05:14;4.60;99.90
6520;DHT22;3293;51.690;5.982;2023-04-25T03:10:14;4.50;99.90
6520;DHT22;3293;51.690;5.982;2023-04-25T03:15:14;4.40;99.90
6520;DHT22;3293;51.690;5.982;2023-04-25T03:20:16;4.30;99.90
6520;DHT22;3293;51.690;5.982;2023-04-25T03:25:16;4.30;99.90
6520;DHT22;3293;51.690;5.982;2023-04-25T03:30:16;4.20;99.90
6520;DHT22;3293;51.690;5.982;2023-04-25T03:35:16;4.20;99.90
6520;DHT22;3293;51.690;5.982;2023-04-25T03:40:16;4.10;99.90
6520;DHT22;3293;51.690;5.982;2023-04-25T03:45:16;4.10;99.90
6520;DHT22;3293;51.690;5.982;2023-04-25T03:50:16;4.00;99.90
6520;DHT22;3293;51.690;5.982;2023-04-25T03:55:16;3.90;99.90
6520;DHT22;3293;51.690;5.982;2023-04-25T04:00:16;3.90;99.90
6520;DHT22;3293;51.690;5.982;2023-04-25T04:05:16;3.90;99.90
6520;DHT22;3293;51.690;5.982;2023-04-25T04:10:16;4.00;99.90
6520;DHT22;3293;51.690;5.982;2023-04-25T04:15:16;4.10;99.90
6520;DHT22;3293;51.690;5.982;2023-04-25T04:20:16;4.20;99.90
6520;DHT22;3293;51.690;5.982;2023-04-25T04:25:16;4.30;99.90
6520;DHT22;3293;51.690;5.982;2023-04-25T04:30:16;4.40;99.90
6520;DHT22;3293;51.690;5.982;2023-04-25T04:35:16;4.50;99.90
6520;DHT22;3293;51.690;5.982;2023-04-25T04:40:16;4.50;99.90
6520;DHT22;3293;51.690;5.982;2023-04-25T04:45:17;4.60;99.90
6520;DHT22;3293;51.690;5.982;2023-04-25T04:50:17;4.70;99.90
6520;DHT22;3293;51.690;5.982;2023-04-25T04:55:18;4.70;99.90
6520;DHT22;3293;51.690;5.982;2023-04-25T05:00:18;4.70;99.90
6520;DHT22;3293;51.690;5.982;2023-04-25T05:05:18;4.70;99.90
6520;DHT22;3293;51.690;5.982;2023-04-25T05:10:18;4.80;99.90
6520;DHT22;3293;51.690;5.982;2023-04-25T05:15:18;5.00;99.90
6520;DHT22;3293;51.690;5.982;2023-04-25T05:20:18;5.50;99.90
6520;DHT22;3293;51.690;5.982;2023-04-25T05:25:18;6.20;99.90
6520;DHT22;3293;51.690;5.982;2023-04-25T05:30:18;7.00;99.90
6520;DHT22;3293;51.690;5.982;2023-04-25T05:35:19;8.30;99.90
6520;DHT22;3293;51.690;5.982;2023-04-25T05:40:19;9.90;99.90
6520;DHT22;3293;51.690;5.982;2023-04-25T05:45:19;11.00;99.90
6520;DHT22;3293;51.690;5.982;2023-04-25T05:50:19;11.50;99.90
6520;DHT22;3293;51.690;5.982;2023-04-25T05:55:19;12.00;99.90
6520;DHT22;3293;51.690;5.982;2023-04-25T06:00:19;12.60;98.60
6520;DHT22;3293;51.690;5.982;2023-04-25T06:05:21;11.80;98.30
6520;DHT22;3293;51.690;5.982;2023-04-25T06:10:21;11.00;99.90
6520;DHT22;3293;51.690;5.982;2023-04-25T06:15:22;10.20;99.90
6520;DHT22;3293;51.690;5.982;2023-04-25T06:20:22;9.70;99.90
6520;DHT22;3293;51.690;5.982;2023-04-25T06:25:24;9.70;99.90
6520;DHT22;3293;51.690;5.982;2023-04-25T06:30:24;9.60;99.90
6520;DHT22;3293;51.690;5.982;2023-04-25T06:35:25;9.60;99.90
6520;DHT22;3293;51.690;5.982;2023-04-25T06:40:25;10.30;99.90
6520;DHT22;3293;51.690;5.982;2023-04-25T06:45:25;11.50;99.90
6520;DHT22;3293;51.690;5.982;2023-04-25T06:50:25;12.10;96.90
6520;DHT22;3293;51.690;5.982;2023-04-25T06:55:25;12.20;95.60
6520;DHT22;3293;51.690;5.982;2023-04-25T07:00:25;13.50;92.40
6520;DHT22;3293;51.690;5.982;2023-04-25T07:05:25;15.80;74.10
6520;DHT22;3293;51.690;5.982;2023-04-25T07:10:25;16.40;59.70
6520;DHT22;3293;51.690;5.982;2023-04-25T07:15:25;16.30;57.80
6520;DHT22;3293;51.690;5.982;2023-04-25T07:20:25;16.70;54.90
6520;DHT22;3293;51.690;5.982;2023-04-25T07:25:27;16.90;55.50
6520;DHT22;3293;51.690;5.982;2023-04-25T07:30:27;16.40;53.40
6520;DHT22;3293;51.690;5.982;2023-04-25T07:35:27;14.10;62.10
6520;DHT22;3293;51.690;5.982;2023-04-25T07:40:27;13.90;70.10
6520;DHT22;3293;51.690;5.982;2023-04-25T07:45:27;13.90;68.00
6520;DHT22;3293;51.690;5.982;2023-04-25T07:50:27;14.60;68.50
6520;DHT22;3293;51.690;5.982;2023-04-25T07:55:27;15.80;53.20
6520;DHT22;3293;51.690;5.982;2023-04-25T08:00:28;15.90;51.10
6520;DHT22;3293;51.690;5.982;2023-04-25T08:05:28;14.40;57.90
6520;DHT22;3293;51.690;5.982;2023-04-25T08:10:28;13.70;63.60
6520;DHT22;3293;51.690;5.982;2023-04-25T08:15:28;13.10;68.80
6520;DHT22;3293;51.690;5.982;2023-04-25T08:20:28;13.10;69.40
6520;DHT22;3293;51.690;5.982;2023-04-25T08:25:28;14.50;62.70
6520;DHT22;3293;51.690;5.982;2023-04-25T08:30:28;16.00;49.90
6520;DHT22;3293;51.690;5.982;2023-04-25T08:35:28;16.70;47.70
6520;DHT22;3293;51.690;5.982;2023-04-25T08:40:28;16.70;43.90
6520;DHT22;3293;51.690;5.982;2023-04-25T08:45:32;16.90;46.10
6520;DHT22;3293;51.690;5.982;2023-04-25T08:50:33;16.50;43.30
6520;DHT22;3293;51.690;5.982;2023-04-25T08:55:33;14.10;48.50
6520;DHT22;3293;51.690;5.982;2023-04-25T09:00:34;13.00;54.20
6520;DHT22;3293;51.690;5.982;2023-04-25T09:05:34;15.80;41.80
6520;DHT22;3293;51.690;5.982;2023-04-25T09:10:35;17.50;37.10
6520;DHT22;3293;51.690;5.982;2023-04-25T09:15:49;18.80;33.30
6520;DHT22;3293;51.690;5.982;2023-04-25T09:20:49;17.40;35.70
6520;DHT22;3293;51.690;5.982;2023-04-25T09:25:50;15.70;42.80
6520;DHT22;3293;51.690;5.982;2023-04-25T09:30:55;14.80;46.10
6520;DHT22;3293;51.690;5.982;2023-04-25T09:36:06;14.00;47.90
6520;DHT22;3293;51.690;5.982;2023-04-25T09:41:07;13.70;48.60
6520;DHT22;3293;51.690;5.982;2023-04-25T09:46:09;13.60;50.90
6520;DHT22;3293;51.690;5.982;2023-04-25T09:51:13;13.10;55.50
6520;DHT22;3293;51.690;5.982;2023-04-25T09:56:13;13.30;52.60
6520;DHT22;3293;51.690;5.982;2023-04-25T10:01:13;13.70;54.60
6520;DHT22;3293;51.690;5.982;2023-04-25T10:06:18;13.50;52.20
6520;DHT22;3293;51.690;5.982;2023-04-25T10:11:19;13.20;57.10
6520;DHT22;3293;51.690;5.982;2023-04-25T10:16:19;12.80;53.10
6520;DHT22;3293;51.690;5.982;2023-04-25T10:21:20;13.10;52.40
6520;DHT22;3293;51.690;5.982;2023-04-25T10:26:21;13.00;49.30
6520;DHT22;3293;51.690;5.982;2023-04-25T10:31:23;12.90;51.30
6520;DHT22;3293;51.690;5.982;2023-04-25T10:36:24;12.20;46.20
6520;DHT22;3293;51.690;5.982;2023-04-25T10:41:27;12.10;55.60
6520;DHT22;3293;51.690;5.982;2023-04-25T10:46:29;12.40;50.70
6520;DHT22;3293;51.690;5.982;2023-04-25T10:51:33;12.30;52.20
6520;DHT22;3293;51.690;5.982;2023-04-25T10:56:40;12.10;49.50
6520;DHT22;3293;51.690;5.982;2023-04-25T11:01:51;12.00;53.70
6520;DHT22;3293;51.690;5.982;2023-04-25T11:12:08;12.20;56.00
6520;DHT22;3293;51.690;5.982;2023-04-25T11:17:08;12.10;56.90
6520;DHT22;3293;51.690;5.982;2023-04-25T11:22:10;12.50;57.50
6520;DHT22;3293;51.690;5.982;2023-04-25T11:27:10;12.80;54.30
6520;DHT22;3293;51.690;5.982;2023-04-25T11:32:10;13.30;53.50
6520;DHT22;3293;51.690;5.982;2023-04-25T11:37:11;14.00;52.70
6520;DHT22;3293;51.690;5.982;2023-04-25T11:42:12;13.80;49.80
6520;DHT22;3293;51.690;5.982;2023-04-25T11:47:13;13.00;47.20
6520;DHT22;3293;51.690;5.982;2023-04-25T11:52:13;12.70;48.00
6520;DHT22;3293;51.690;5.982;2023-04-25T11:57:13;12.50;51.00
6520;DHT22;3293;51.690;5.982;2023-04-25T12:02:24;12.20;53.00
6520;DHT22;3293;51.690;5.982;2023-04-25T12:07:29;12.30;51.00
6520;DHT22;3293;51.690;5.982;2023-04-25T12:12:34;12.00;52.10
6520;DHT22;3293;51.690;5.982;2023-04-25T12:17:34;12.00;61.50
6520;DHT22;3293;51.690;5.982;2023-04-25T12:22:34;12.40;54.60
6520;DHT22;3293;51.690;5.982;2023-04-25T12:27:35;12.20;59.10
6520;DHT22;3293;51.690;5.982;2023-04-25T12:32:36;11.90;52.00
6520;DHT22;3293;51.690;5.982;2023-04-25T12:37:36;11.50;48.40
6520;DHT22;3293;51.690;5.982;2023-04-25T12:42:35;11.60;53.70
6520;DHT22;3293;51.690;5.982;2023-04-25T12:47:36;12.20;53.60
6520;DHT22;3293;51.690;5.982;2023-04-25T12:52:36;12.30;53.60
6520;DHT22;3293;51.690;5.982;2023-04-25T12:57:36;12.20;51.90
6520;DHT22;3293;51.690;5.982;2023-04-25T13:02:36;12.10;50.90
6520;DHT22;3293;51.690;5.982;2023-04-25T13:07:36;11.90;51.30
6520;DHT22;3293;51.690;5.982;2023-04-25T13:12:36;12.00;52.70
6520;DHT22;3293;51.690;5.982;2023-04-25T13:17:36;11.80;58.10
6520;DHT22;3293;51.690;5.982;2023-04-25T13:22:39;11.40;63.40
6520;DHT22;3293;51.690;5.982;2023-04-25T13:27:39;11.00;69.60
6520;DHT22;3293;51.690;5.982;2023-04-25T13:32:40;11.00;71.30
6520;DHT22;3293;51.690;5.982;2023-04-25T13:37:41;11.50;68.90
6520;DHT22;3293;51.690;5.982;2023-04-25T13:42:41;12.10;70.10
6520;DHT22;3293;51.690;5.982;2023-04-25T13:47:41;12.20;54.40
6520;DHT22;3293;51.690;5.982;2023-04-25T13:52:41;11.90;51.50
6520;DHT22;3293;51.690;5.982;2023-04-25T13:57:41;12.00;49.20
6520;DHT22;3293;51.690;5.982;2023-04-25T14:02:42;11.80;45.90
6520;DHT22;3293;51.690;5.982;2023-04-25T14:07:43;11.70;45.30
6520;DHT22;3293;51.690;5.982;2023-04-25T14:12:42;11.60;48.90
6520;DHT22;3293;51.690;5.982;2023-04-25T14:17:43;11.80;55.40
6520;DHT22;3293;51.690;5.982;2023-04-25T14:22:45;11.90;55.80
6520;DHT22;3293;51.690;5.982;2023-04-25T14:27:46;11.90;53.80
6520;DHT22;3293;51.690;5.982;2023-04-25T14:32:49;12.00;54.10
6520;DHT22;3293;51.690;5.982;2023-04-25T14:37:49;12.00;51.30
6520;DHT22;3293;51.690;5.982;2023-04-25T14:42:49;11.70;49.60
6520;DHT22;3293;51.690;5.982;2023-04-25T14:47:50;11.50;50.40
6520;DHT22;3293;51.690;5.982;2023-04-25T14:52:50;11.40;53.10
6520;DHT22;3293;51.690;5.982;2023-04-25T14:57:55;11.40;48.60
6520;DHT22;3293;51.690;5.982;2023-04-25T15:02:55;11.40;47.90
6520;DHT22;3293;51.690;5.982;2023-04-25T15:07:55;11.20;47.80
6520;DHT22;3293;51.690;5.982;2023-04-25T15:12:55;11.40;47.80
6520;DHT22;3293;51.690;5.982;2023-04-25T15:17:57;11.60;43.80
6520;DHT22;3293;51.690;5.982;2023-04-25T15:22:57;11.90;44.00
6520;DHT22;3293;51.690;5.982;2023-04-25T15:27:58;12.30;51.30
6520;DHT22;3293;51.690;5.982;2023-04-25T15:32:58;12.50;52.20
6520;DHT22;3293;51.690;5.982;2023-04-25T15:37:57;11.80;51.00
6520;DHT22;3293;51.690;5.982;2023-04-25T15:42:57;11.30;53.10
6520;DHT22;3293;51.690;5.982;2023-04-25T15:47:58;11.00;50.50
6520;DHT22;3293;51.690;5.982;2023-04-25T15:52:58;10.70;51.80
6520;DHT22;3293;51.690;5.982;2023-04-25T15:57:58;10.60;59.00
6520;DHT22;3293;51.690;5.982;2023-04-25T16:02:58;10.50;60.20
6520;DHT22;3293;51.690;5.982;2023-04-25T16:07:58;10.60;59.10
6520;DHT22;3293;51.690;5.982;2023-04-25T16:12:59;10.70;55.30
6520;DHT22;3293;51.690;5.982;2023-04-25T16:17:59;10.60;59.20
6520;DHT22;3293;51.690;5.982;2023-04-25T16:22:59;10.40;56.90
6520;DHT22;3293;51.690;5.982;2023-04-25T16:28:00;10.30;56.80
6520;DHT22;3293;51.690;5.982;2023-04-25T16:33:00;10.30;58.60
6520;DHT22;3293;51.690;5.982;2023-04-25T16:38:00;10.30;58.40
6520;DHT22;3293;51.690;5.982;2023-04-25T16:43:00;10.40;60.00
6520;DHT22;3293;51.690;5.982;2023-04-25T16:48:01;10.40;62.30
6520;DHT22;3293;51.690;5.982;2023-04-25T16:53:01;10.30;66.00
6520;DHT22;3293;51.690;5.982;2023-04-25T16:58:01;10.30;69.30
6520;DHT22;3293;51.690;5.982;2023-04-25T17:03:01;10.30;66.70
6520;DHT22;3293;51.690;5.982;2023-04-25T17:08:02;10.20;65.50
6520;DHT22;3293;51.690;5.982;2023-04-25T17:13:02;10.10;67.30
6520;DHT22;3293;51.690;5.982;2023-04-25T17:18:01;9.90;67.20
6520;DHT22;3293;51.690;5.982;2023-04-25T17:23:02;9.90;65.40
6520;DHT22;3293;51.690;5.982;2023-04-25T17:28:02;9.80;69.10
6520;DHT22;3293;51.690;5.982;2023-04-25T17:33:02;9.60;70.60
6520;DHT22;3293;51.690;5.982;2023-04-25T17:38:03;9.50;71.30
6520;DHT22;3293;51.690;5.982;2023-04-25T17:43:02;9.60;66.80
6520;DHT22;3293;51.690;5.982;2023-04-25T17:48:03;9.60;67.60
6520;DHT22;3293;51.690;5.982;2023-04-25T17:53:03;9.70;68.20
6520;DHT22;3293;51.690;5.982;2023-04-25T17:58:03;9.70;67.60
6520;DHT22;3293;51.690;5.982;2023-04-25T18:03:03;9.50;65.70
6520;DHT22;3293;51.690;5.982;2023-04-25T18:08:03;9.50;70.90
6520;DHT22;3293;51.690;5.982;2023-04-25T18:13:05;9.40;72.30
6520;DHT22;3293;51.690;5.982;2023-04-25T18:18:05;9.20;79.90
6520;DHT22;3293;51.690;5.982;2023-04-25T18:23:13;8.90;86.30
6520;DHT22;3293;51.690;5.982;2023-04-25T18:28:13;8.80;90.50
6520;DHT22;3293;51.690;5.982;2023-04-25T18:33:13;8.70;90.70
6520;DHT22;3293;51.690;5.982;2023-04-25T18:38:13;8.50;89.00
6520;DHT22;3293;51.690;5.982;2023-04-25T18:43:13;8.40;88.40
6520;DHT22;3293;51.690;5.982;2023-04-25T18:48:13;8.20;89.40
6520;DHT22;3293;51.690;5.982;2023-04-25T18:53:13;8.00;90.70
6520;DHT22;3293;51.690;5.982;2023-04-25T18:58:13;7.80;92.40
6520;DHT22;3293;51.690;5.982;2023-04-25T19:03:13;7.60;93.90
6520;DHT22;3293;51.690;5.982;2023-04-25T19:08:13;7.50;95.00
6520;DHT22;3293;51.690;5.982;2023-04-25T19:13:13;7.40;96.70
6520;DHT22;3293;51.690;5.982;2023-04-25T19:18:17;7.30;96.80
6520;DHT22;3293;51.690;5.982;2023-04-25T19:23:17;7.10;99.10
6520;DHT22;3293;51.690;5.982;2023-04-25T19:28:17;6.90;99.90
6520;DHT22;3293;51.690;5.982;2023-04-25T19:33:18;6.80;99.90
6520;DHT22;3293;51.690;5.982;2023-04-25T19:38:18;6.60;99.90
6520;DHT22;3293;51.690;5.982;2023-04-25T19:43:18;6.60;99.90
6520;DHT22;3293;51.690;5.982;2023-04-25T19:48:18;6.50;99.90
6520;DHT22;3293;51.690;5.982;2023-04-25T19:53:18;6.50;99.90
6520;DHT22;3293;51.690;5.982;2023-04-25T19:58:18;6.40;99.90
6520;DHT22;3293;51.690;5.982;2023-04-25T20:03:18;6.30;99.90
6520;DHT22;3293;51.690;5.982;2023-04-25T20:08:18;6.30;99.90
6520;DHT22;3293;51.690;5.982;2023-04-25T20:13:18;6.30;99.90
6520;DHT22;3293;51.690;5.982;2023-04-25T20:18:18;6.30;99.90
6520;DHT22;3293;51.690;5.982;2023-04-25T20:23:19;6.30;99.90
6520;DHT22;3293;51.690;5.982;2023-04-25T20:28:20;6.20;99.90
6520;DHT22;3293;51.690;5.982;2023-04-25T20:33:21;6.10;99.90
6520;DHT22;3293;51.690;5.982;2023-04-25T20:38:21;6.00;99.90
6520;DHT22;3293;51.690;5.982;2023-04-25T20:43:22;6.00;99.90
6520;DHT22;3293;51.690;5.982;2023-04-25T20:48:22;5.90;99.90
6520;DHT22;3293;51.690;5.982;2023-04-25T20:53:22;5.70;99.90
6520;DHT22;3293;51.690;5.982;2023-04-25T20:58:22;5.60;99.90
6520;DHT22;3293;51.690;5.982;2023-04-25T21:03:22;5.50;99.90
6520;DHT22;3293;51.690;5.982;2023-04-25T21:08:24;5.40;99.90
6520;DHT22;3293;51.690;5.982;2023-04-25T21:13:25;5.30;99.90
6520;DHT22;3293;51.690;5.982;2023-04-25T21:18:27;5.20;99.90
6520;DHT22;3293;51.690;5.982;2023-04-25T21:23:32;5.10;99.90
6520;DHT22;3293;51.690;5.982;2023-04-25T21:28:32;5.00;99.90
6520;DHT22;3293;51.690;5.982;2023-04-25T21:33:33;5.00;99.90
6520;DHT22;3293;51.690;5.982;2023-04-25T21:38:34;4.90;99.90
6520;DHT22;3293;51.690;5.982;2023-04-25T21:43:35;4.80;99.90
6520;DHT22;3293;51.690;5.982;2023-04-25T21:48:35;4.70;99.90
6520;DHT22;3293;51.690;5.982;2023-04-25T21:53:35;4.50;99.90
6520;DHT22;3293;51.690;5.982;2023-04-25T21:58:36;4.40;99.90
6520;DHT22;3293;51.690;5.982;2023-04-25T22:03:36;4.30;99.90
6520;DHT22;3293;51.690;5.982;2023-04-25T22:08:36;4.20;99.90
6520;DHT22;3293;51.690;5.982;2023-04-25T22:13:36;4.10;99.90
6520;DHT22;3293;51.690;5.982;2023-04-25T22:18:36;4.10;99.90
6520;DHT22;3293;51.690;5.982;2023-04-25T22:23:36;4.00;99.90
6520;DHT22;3293;51.690;5.982;2023-04-25T22:28:36;4.00;99.90
6520;DHT22;3293;51.690;5.982;2023-04-25T22:33:36;3.90;99.90
6520;DHT22;3293;51.690;5.982;2023-04-25T22:38:36;3.80;99.90
6520;DHT22;3293;51.690;5.982;2023-04-25T22:43:37;3.70;99.90
6520;DHT22;3293;51.690;5.982;2023-04-25T22:48:38;3.60;99.90
6520;DHT22;3293;51.690;5.982;2023-04-25T22:53:40;3.60;99.90
6520;DHT22;3293;51.690;5.982;2023-04-25T22:58:40;3.50;99.90
6520;DHT22;3293;51.690;5.982;2023-04-25T23:03:40;3.50;99.90
6520;DHT22;3293;51.690;5.982;2023-04-25T23:08:40;3.40;99.90
6520;DHT22;3293;51.690;5.982;2023-04-25T23:13:40;3.40;99.90
6520;DHT22;3293;51.690;5.982;2023-04-25T23:18:40;3.40;99.90
6520;DHT22;3293;51.690;5.982;2023-04-25T23:23:40;3.30;99.90
6520;DHT22;3293;51.690;5.982;2023-04-25T23:28:40;3.40;99.90
6520;DHT22;3293;51.690;5.982;2023-04-25T23:33:40;3.30;99.90
6520;DHT22;3293;51.690;5.982;2023-04-25T23:38:40;3.30;99.90
6520;DHT22;3293;51.690;5.982;2023-04-25T23:43:40;3.20;99.90
6520;DHT22;3293;51.690;5.982;2023-04-25T23:48:40;3.20;99.90
6520;DHT22;3293;51.690;5.982;2023-04-25T23:53:40;3.10;99.90
6520;DHT22;3293;51.690;5.982;2023-04-25T23:58:40;3.10;99.90
